Time;durP1;ratioP1;P1;durP2;ratioP2;P2;SDS_P1;SDS_P2;PMS_P1;PMS_P2;Temp;Humidity;BMP_temperature;BMP_pressure;BME280_temperature;BME280_humidity;BME280_pressure;Samples;Min_cycle;Max_cycle;Signal;HPM_P1;HPM_P2
2022/06/04 00:01:27;;;;;;;13.77;7.10;;;12.30;99.90;;;;;;5000822;28;20215;-86
2022/06/04 00:03:55;;;;;;;11.90;6.88;;;12.30;99.90;;;;;;5001455;28;20045;-86
2022/06/04 00:06:21;;;;;;;10.80;6.18;;;12.30;99.90;;;;;;5018735;28;20045;-86
2022/06/04 00:08:47;;;;;;;13.35;6.82;;;12.30;99.90;;;;;;4986539;28;20045;-86
2022/06/04 00:16:45;;;;;;;10.52;7.20;;;12.40;99.90;;;;;;5034896;28;20212;-86
2022/06/04 00:19:11;;;;;;;10.90;7.47;;;12.40;99.90;;;;;;4987661;28;20040;-86
2022/06/04 00:21:38;;;;;;;13.02;7.78;;;12.30;99.90;;;;;;5023700;28;20051;-86
2022/06/04 00:24:06;;;;;;;17.90;8.77;;;12.30;99.90;;;;;;5037159;28;20052;-87
2022/06/04 00:26:32;;;;;;;12.45;8.32;;;12.30;99.90;;;;;;5036061;28;20045;-86
2022/06/04 00:28:58;;;;;;;11.57;7.80;;;12.30;99.90;;;;;;5035987;28;20045;-87
2022/06/04 00:31:28;;;;;;;15.43;9.32;;;12.30;99.90;;;;;;5019482;28;20051;-86
2022/06/04 00:33:57;;;;;;;13.88;8.82;;;12.30;99.90;;;;;;5037513;28;20127;-87
2022/06/04 00:36:22;;;;;;;12.52;9.23;;;12.40;99.90;;;;;;5004380;28;20139;-86
2022/06/04 00:38:52;;;;;;;13.05;8.40;;;12.30;99.90;;;;;;5003305;28;20608;-88
2022/06/04 00:41:28;;;;;;;16.92;8.68;;;12.40;99.90;;;;;;5019913;28;20110;-87
2022/06/04 00:44:05;;;;;;;10.60;8.02;;;12.30;99.90;;;;;;5036507;28;20411;-86
2022/06/04 00:46:40;;;;;;;16.17;8.93;;;12.40;99.90;;;;;;5035970;28;20250;-87
2022/06/04 00:49:08;;;;;;;14.98;9.25;;;12.30;99.90;;;;;;5031420;28;20092;-86
2022/06/04 00:51:34;;;;;;;14.65;8.02;;;12.40;99.90;;;;;;4984459;28;20099;-86
2022/06/04 00:54:01;;;;;;;19.27;8.77;;;12.50;99.90;;;;;;5016926;28;20072;-87
2022/06/04 00:56:37;;;;;;;12.57;8.35;;;12.40;99.90;;;;;;5000934;28;20485;-86
2022/06/04 00:59:26;;;;;;;12.13;7.65;;;12.50;99.90;;;;;;5016599;28;20048;-86
2022/06/04 01:02:21;;;;;;;14.23;8.30;;;12.50;99.90;;;;;;5016450;28;20057;-86
2022/06/04 01:05:16;;;;;;;16.80;8.48;;;12.40;99.90;;;;;;5017382;28;20049;-86
2022/06/04 01:08:18;;;;;;;9.45;7.45;;;12.40;99.90;;;;;;5019889;28;20056;-86
2022/06/04 01:11:22;;;;;;;12.63;8.00;;;12.40;99.90;;;;;;5020394;28;20037;-86
2022/06/04 01:14:19;;;;;;;15.50;8.35;;;12.40;99.90;;;;;;5020130;28;20396;-86
2022/06/04 01:16:55;;;;;;;11.95;8.75;;;12.30;99.90;;;;;;5005535;28;20051;-86
2022/06/04 01:20:12;;;;;;;13.65;9.32;;;12.30;99.90;;;;;;5020623;28;20392;-86
2022/06/04 01:22:46;;;;;;;16.58;9.40;;;12.40;99.90;;;;;;4940814;28;20514;-85
2022/06/04 01:25:33;;;;;;;13.75;9.15;;;12.20;99.90;;;;;;5009631;28;20053;-86
2022/06/04 01:27:59;;;;;;;16.70;9.68;;;12.30;99.90;;;;;;5019811;28;20102;-87
2022/06/04 01:30:34;;;;;;;15.75;9.70;;;12.10;99.90;;;;;;5019487;28;20037;-86
2022/06/04 01:33:14;;;;;;;15.38;9.15;;;12.10;99.90;;;;;;5019416;28;20041;-86
2022/06/04 01:35:56;;;;;;;14.05;9.35;;;12.10;99.90;;;;;;5020020;28;20463;-87
2022/06/04 01:38:36;;;;;;;15.88;8.57;;;12.10;99.90;;;;;;5020876;28;20056;-87
2022/06/04 01:41:33;;;;;;;14.77;8.68;;;12.00;99.90;;;;;;5020268;28;20064;-86
2022/06/04 01:44:05;;;;;;;15.52;8.70;;;12.00;99.90;;;;;;5006691;28;20041;-87
2022/06/04 01:46:45;;;;;;;13.02;8.98;;;12.00;99.90;;;;;;5019944;28;20124;-87
2022/06/04 01:49:52;;;;;;;16.52;8.40;;;12.00;99.90;;;;;;5022404;28;20056;-86
2022/06/04 01:52:31;;;;;;;13.52;8.55;;;11.90;99.90;;;;;;4991871;28;20041;-86
2022/06/04 01:55:19;;;;;;;14.50;9.40;;;11.90;99.90;;;;;;5035356;28;20157;-87
2022/06/04 01:58:00;;;;;;;14.10;8.70;;;11.90;99.90;;;;;;5019277;28;20060;-86
2022/06/04 02:00:35;;;;;;;14.10;9.00;;;11.90;99.90;;;;;;5035030;28;20192;-86
2022/06/04 02:03:12;;;;;;;14.57;9.07;;;11.80;99.90;;;;;;5035796;28;20041;-86
2022/06/04 02:05:59;;;;;;;17.33;8.77;;;11.70;99.90;;;;;;5037796;28;20048;-86
2022/06/04 02:08:37;;;;;;;12.57;8.63;;;11.80;99.90;;;;;;5034897;28;20041;-86
2022/06/04 02:11:19;;;;;;;11.77;8.82;;;11.80;99.90;;;;;;5038174;28;20492;-86
2022/06/04 02:13:47;;;;;;;18.02;8.85;;;11.70;99.90;;;;;;5039058;28;20399;-86
2022/06/04 02:16:39;;;;;;;14.30;7.57;;;11.70;99.90;;;;;;5021688;28;20087;-86
2022/06/04 02:19:05;;;;;;;13.63;8.32;;;11.70;99.90;;;;;;5037085;28;20040;-86
2022/06/04 02:21:32;;;;;;;12.98;7.93;;;11.70;99.90;;;;;;5005531;28;20102;-86
2022/06/04 02:23:59;;;;;;;13.35;8.00;;;11.60;99.90;;;;;;5022149;28;20044;-86
2022/06/04 02:26:27;;;;;;;13.35;7.53;;;11.70;99.90;;;;;;5021236;28;20507;-86
2022/06/04 02:28:59;;;;;;;16.75;7.55;;;11.70;99.90;;;;;;5022105;28;20434;-86
2022/06/04 02:31:41;;;;;;;11.18;7.82;;;11.60;99.90;;;;;;5038029;28;20048;-86
2022/06/04 02:34:44;;;;;;;10.88;7.55;;;11.70;99.90;;;;;;5037949;28;20048;-87
2022/06/04 02:37:30;;;;;;;14.40;7.22;;;11.70;99.90;;;;;;5037196;28;20048;-86
2022/06/04 02:40:10;;;;;;;11.00;7.00;;;11.70;99.90;;;;;;5037792;28;20044;-86
2022/06/04 02:43:01;;;;;;;9.63;7.05;;;11.70;99.90;;;;;;5038089;28;20083;-86
2022/06/04 02:45:34;;;;;;;11.70;6.68;;;11.80;99.90;;;;;;5037723;28;20135;-86
2022/06/04 02:48:24;;;;;;;9.70;6.10;;;11.80;99.90;;;;;;5038328;28;20044;-86
2022/06/04 02:50:57;;;;;;;9.73;6.88;;;11.80;99.90;;;;;;5023022;28;20048;-86
2022/06/04 02:53:26;;;;;;;9.77;5.93;;;11.80;99.90;;;;;;5037771;28;20054;-86
2022/06/04 02:56:01;;;;;;;9.60;6.07;;;11.80;99.90;;;;;;5037835;28;20052;-86
2022/06/04 02:58:29;;;;;;;9.02;6.70;;;11.80;99.90;;;;;;5037678;28;20524;-86
2022/06/04 03:00:59;;;;;;;11.27;6.53;;;11.80;99.90;;;;;;5037737;28;20048;-86
2022/06/04 03:03:27;;;;;;;9.55;6.20;;;11.80;99.90;;;;;;5039030;28;20078;-85
2022/06/04 03:05:57;;;;;;;8.15;6.40;;;11.80;99.90;;;;;;5022171;28;20416;-87
2022/06/04 03:08:25;;;;;;;7.97;5.68;;;11.90;99.90;;;;;;5037605;28;20040;-86
2022/06/04 03:10:51;;;;;;;9.93;5.65;;;11.90;99.90;;;;;;5022051;28;20048;-86
2022/06/04 03:13:17;;;;;;;7.75;5.88;;;11.80;99.90;;;;;;5024662;28;20412;-86
2022/06/04 03:15:46;;;;;;;9.30;6.05;;;11.80;99.90;;;;;;5021719;28;20049;-86
2022/06/04 03:18:13;;;;;;;9.00;6.00;;;11.70;99.90;;;;;;5037921;28;20591;-86
2022/06/04 03:20:39;;;;;;;7.15;5.07;;;11.80;99.90;;;;;;5038097;28;20109;-86
2022/06/04 03:23:06;;;;;;;9.63;5.65;;;11.70;99.90;;;;;;5023008;28;20056;-87
2022/06/04 03:25:34;;;;;;;8.27;5.82;;;11.80;99.90;;;;;;5005440;28;20561;-87
2022/06/04 03:28:01;;;;;;;7.65;5.45;;;11.70;99.90;;;;;;5023790;28;20464;-86
2022/06/04 03:30:27;;;;;;;8.20;5.25;;;11.70;99.90;;;;;;5037668;28;20111;-87
2022/06/04 03:32:56;;;;;;;6.72;4.75;;;11.50;99.90;;;;;;5020828;28;20054;-86
2022/06/04 03:35:22;;;;;;;9.10;5.60;;;11.50;99.90;;;;;;5020630;28;20491;-86
2022/06/04 03:37:48;;;;;;;8.20;5.40;;;11.60;99.90;;;;;;5037239;28;20044;-86
2022/06/04 03:40:15;;;;;;;7.75;5.30;;;11.50;99.90;;;;;;5004937;28;20052;-86
2022/06/04 03:42:46;;;;;;;9.52;5.53;;;11.50;99.90;;;;;;5021885;28;20084;-86
2022/06/04 03:45:14;;;;;;;9.35;5.65;;;11.40;99.90;;;;;;5019926;28;20063;-87
2022/06/04 03:47:40;;;;;;;9.68;5.28;;;11.40;99.90;;;;;;5037329;28;20084;-86
2022/06/04 03:50:10;;;;;;;8.98;5.38;;;11.40;99.90;;;;;;5036449;28;20115;-85
2022/06/04 03:52:36;;;;;;;8.13;4.78;;;11.30;99.90;;;;;;5036744;28;20559;-85
2022/06/04 03:55:02;;;;;;;7.20;5.25;;;11.40;99.90;;;;;;5020281;28;20219;-86
2022/06/04 03:58:05;;;;;;;9.63;5.82;;;11.40;99.90;;;;;;5036839;28;20113;-88
2022/06/04 04:00:30;;;;;;;8.05;5.50;;;11.50;99.90;;;;;;5050358;28;20329;-86
2022/06/04 04:03:03;;;;;;;7.85;5.30;;;11.40;99.90;;;;;;5037029;28;20051;-87
2022/06/04 04:05:34;;;;;;;9.70;5.32;;;11.50;99.90;;;;;;5036057;28;20484;-86
2022/06/04 04:08:05;;;;;;;6.97;5.20;;;11.40;99.90;;;;;;5036770;28;20697;-86
2022/06/04 04:10:34;;;;;;;7.28;5.20;;;11.50;99.90;;;;;;5037198;28;20045;-86
2022/06/04 04:13:00;;;;;;;6.68;5.15;;;11.50;99.90;;;;;;5037661;28;20041;-86
2022/06/04 04:15:26;;;;;;;7.65;4.82;;;11.50;99.90;;;;;;5023847;28;20052;-86
2022/06/04 04:17:54;;;;;;;7.20;5.30;;;11.50;99.90;;;;;;5020355;28;20045;-86
2022/06/04 04:20:25;;;;;;;6.32;4.85;;;11.70;99.90;;;;;;5004261;28;20519;-86
2022/06/04 04:22:51;;;;;;;6.53;5.00;;;11.70;99.90;;;;;;5038206;28;20063;-86
2022/06/04 04:25:23;;;;;;;8.52;5.22;;;11.70;99.90;;;;;;5037320;28;20049;-86
2022/06/04 04:27:50;;;;;;;8.63;5.05;;;11.70;99.90;;;;;;5037847;28;20056;-86
2022/06/04 04:30:19;;;;;;;8.20;4.93;;;11.80;99.90;;;;;;5037049;28;20461;-86
2022/06/04 04:32:45;;;;;;;7.88;5.30;;;11.90;99.90;;;;;;5038437;28;20086;-86
2022/06/04 04:35:20;;;;;;;9.48;5.00;;;11.80;99.90;;;;;;5036490;28;20048;-86
2022/06/04 04:37:46;;;;;;;6.75;5.13;;;11.80;99.90;;;;;;5037429;28;20499;-86
2022/06/04 04:40:15;;;;;;;6.80;5.05;;;11.80;99.90;;;;;;5037030;28;20044;-87
2022/06/04 04:42:44;;;;;;;6.22;4.57;;;11.90;99.90;;;;;;5040278;28;20106;-86
2022/06/04 04:45:11;;;;;;;5.35;4.75;;;12.00;99.90;;;;;;5045091;28;20044;-86
2022/06/04 04:47:39;;;;;;;7.32;4.65;;;12.00;99.90;;;;;;5029140;28;20044;-86
2022/06/04 04:50:10;;;;;;;6.88;5.10;;;12.10;99.90;;;;;;5030675;28;20115;-87
2022/06/04 04:52:39;;;;;;;7.43;5.05;;;12.00;99.90;;;;;;5026512;28;20052;-86
2022/06/04 04:55:05;;;;;;;7.38;5.40;;;12.20;99.90;;;;;;5010528;28;20107;-86
2022/06/04 04:57:33;;;;;;;5.90;4.90;;;12.20;99.90;;;;;;4989520;28;20513;-87
2022/06/04 05:00:02;;;;;;;7.22;5.00;;;12.20;99.90;;;;;;5007934;28;20049;-86
2022/06/04 05:02:28;;;;;;;7.22;5.28;;;12.30;99.90;;;;;;5014256;28;20061;-86
2022/06/04 05:04:54;;;;;;;7.13;5.03;;;12.20;99.90;;;;;;4992744;28;20041;-87
2022/06/04 05:07:20;;;;;;;8.23;5.57;;;12.20;99.90;;;;;;5003753;28;20548;-86
2022/06/04 05:09:45;;;;;;;6.50;5.57;;;12.30;99.90;;;;;;4987516;28;20089;-87
2022/06/04 05:12:14;;;;;;;6.03;5.15;;;12.50;99.90;;;;;;4988700;28;20591;-86
2022/06/04 05:14:40;;;;;;;8.05;4.97;;;12.50;99.90;;;;;;5004161;28;20083;-86
2022/06/04 05:17:06;;;;;;;7.32;5.25;;;12.40;99.90;;;;;;4987625;28;20099;-86
2022/06/04 05:19:32;;;;;;;8.57;5.45;;;12.60;99.90;;;;;;4990223;28;20059;-86
2022/06/04 05:21:58;;;;;;;8.23;5.90;;;12.40;99.90;;;;;;5007150;28;20060;-87
2022/06/04 05:24:34;;;;;;;8.25;5.85;;;12.60;99.90;;;;;;5004566;28;20103;-86
2022/06/04 05:27:02;;;;;;;7.68;4.90;;;12.60;99.90;;;;;;5022992;28;20140;-86
2022/06/04 05:29:29;;;;;;;8.15;5.28;;;12.50;99.90;;;;;;5022313;28;20045;-85
2022/06/04 05:31:57;;;;;;;9.50;5.70;;;12.60;99.90;;;;;;5023302;28;20049;-86
2022/06/04 05:34:23;;;;;;;7.55;5.47;;;12.60;99.90;;;;;;5004090;28;20095;-89
2022/06/04 05:36:50;;;;;;;7.63;5.20;;;12.50;99.90;;;;;;5004038;28;20465;-87
2022/06/04 05:39:17;;;;;;;8.30;5.43;;;12.60;99.90;;;;;;5019312;28;20055;-86
2022/06/04 05:41:43;;;;;;;8.80;5.40;;;12.60;99.90;;;;;;5003677;28;20091;-86
2022/06/04 05:44:12;;;;;;;6.97;5.53;;;12.60;99.90;;;;;;5020257;28;20386;-86
2022/06/04 05:46:44;;;;;;;6.82;4.82;;;12.70;99.90;;;;;;5020143;28;20563;-86
2022/06/04 05:49:12;;;;;;;5.40;4.80;;;12.60;99.90;;;;;;5041841;28;20052;-86
2022/06/04 05:51:40;;;;;;;5.82;5.03;;;12.60;99.90;;;;;;5039924;28;20041;-86
2022/06/04 05:54:09;;;;;;;7.45;5.47;;;12.60;99.90;;;;;;5041467;28;20186;-85
2022/06/04 05:56:41;;;;;;;6.65;4.50;;;12.60;99.90;;;;;;5023956;28;20067;-85
2022/06/04 05:59:11;;;;;;;7.32;4.68;;;12.70;99.90;;;;;;5059070;28;20048;-86
2022/06/04 06:01:38;;;;;;;5.88;4.35;;;12.70;99.90;;;;;;5038970;28;20087;-86
2022/06/04 06:04:05;;;;;;;5.82;4.78;;;12.80;99.90;;;;;;5039511;28;20040;-86
2022/06/04 06:06:33;;;;;;;7.00;4.57;;;12.70;99.90;;;;;;5023427;28;20044;-85
2022/06/04 06:09:04;;;;;;;8.05;4.90;;;12.80;99.90;;;;;;5023114;28;20149;-86
2022/06/04 06:11:30;;;;;;;6.15;4.65;;;13.00;99.90;;;;;;5039265;28;20135;-85
2022/06/04 06:13:56;;;;;;;5.88;4.10;;;13.00;99.90;;;;;;5039862;28;20048;-85
2022/06/04 06:16:28;;;;;;;6.88;3.55;;;13.10;99.90;;;;;;5010166;28;20488;-85
2022/06/04 06:18:54;;;;;;;5.90;4.75;;;13.10;99.90;;;;;;4999986;28;20053;-87
2022/06/04 06:21:25;;;;;;;6.00;4.07;;;13.30;99.90;;;;;;4984337;28;20049;-85
2022/06/04 06:23:54;;;;;;;6.40;4.38;;;13.30;99.90;;;;;;4987327;28;20049;-94
2022/06/04 06:26:26;;;;;;;6.00;4.32;;;13.40;99.90;;;;;;4993402;28;20111;-94
2022/06/04 06:28:55;;;;;;;6.00;4.35;;;13.40;99.90;;;;;;5010111;28;20059;-94
2022/06/04 06:31:26;;;;;;;5.97;4.15;;;13.60;99.90;;;;;;4993099;28;20412;-95
2022/06/04 06:33:53;;;;;;;6.35;4.15;;;13.50;99.90;;;;;;5006989;28;20095;-93
2022/06/04 06:36:21;;;;;;;4.40;4.00;;;13.40;99.90;;;;;;4995997;28;20049;-93
2022/06/04 06:38:48;;;;;;;7.55;3.88;;;13.80;99.90;;;;;;5010374;28;20057;-94
2022/06/04 06:41:16;;;;;;;6.88;3.67;;;13.70;99.90;;;;;;5008040;28;20071;-91
2022/06/04 06:43:50;;;;;;;4.65;4.00;;;13.50;99.90;;;;;;5006829;28;20057;-93
2022/06/04 06:46:21;;;;;;;6.30;3.83;;;13.70;99.90;;;;;;4977121;28;20046;-93
2022/06/04 06:48:51;;;;;;;7.43;3.95;;;13.70;99.90;;;;;;5005336;28;20076;-92
2022/06/04 06:51:21;;;;;;;6.82;4.20;;;13.70;99.90;;;;;;5003620;28;20538;-93
2022/06/04 06:53:49;;;;;;;3.65;3.08;;;13.50;99.90;;;;;;5008194;28;20045;-91
2022/06/04 06:56:19;;;;;;;4.03;3.55;;;13.60;99.90;;;;;;4990004;28;20049;-93
2022/06/04 06:58:47;;;;;;;6.07;3.85;;;13.70;99.90;;;;;;5004693;28;20466;-93
2022/06/04 07:01:14;;;;;;;5.28;3.92;;;13.30;99.90;;;;;;4988229;28;20168;-93
2022/06/04 07:03:42;;;;;;;5.10;3.88;;;13.80;99.90;;;;;;4990066;28;20092;-92
2022/06/04 07:06:11;;;;;;;5.68;4.15;;;13.80;99.90;;;;;;4987394;28;20053;-93
2022/06/04 07:08:39;;;;;;;5.10;3.78;;;13.70;99.90;;;;;;5004725;28;20042;-92
2022/06/04 07:11:05;;;;;;;4.93;3.55;;;14.10;99.90;;;;;;5002996;28;20076;-95
2022/06/04 07:13:31;;;;;;;6.03;4.10;;;14.30;99.90;;;;;;4987782;28;20140;-93
2022/06/04 07:15:58;;;;;;;5.80;4.25;;;14.20;99.90;;;;;;5003955;28;20049;-92
2022/06/04 07:18:24;;;;;;;4.00;3.50;;;14.10;99.90;;;;;;4988656;28;20053;-92
2022/06/04 07:20:55;;;;;;;6.75;4.22;;;14.10;99.90;;;;;;4987789;28;20045;-92
2022/06/04 07:23:21;;;;;;;6.28;3.90;;;14.30;99.90;;;;;;4987889;28;20060;-93
2022/06/04 07:25:47;;;;;;;4.80;3.65;;;14.60;99.90;;;;;;5003417;28;20049;-91
2022/06/04 07:28:15;;;;;;;5.55;3.85;;;14.70;99.90;;;;;;4988719;28;20503;-93
2022/06/04 07:30:43;;;;;;;6.07;3.97;;;14.50;99.90;;;;;;4990732;28;20049;-95
2022/06/04 07:33:09;;;;;;;4.75;3.85;;;15.10;99.90;;;;;;4988789;28;20129;-94
2022/06/04 07:35:35;;;;;;;6.95;4.40;;;14.60;99.90;;;;;;4986697;28;20107;-93
2022/06/04 07:38:01;;;;;;;6.45;3.80;;;14.90;99.90;;;;;;4988321;28;20140;-91
2022/06/04 07:40:28;;;;;;;7.03;3.67;;;15.00;99.90;;;;;;4987424;28;20049;-94
2022/06/04 07:42:53;;;;;;;5.53;4.18;;;14.80;99.90;;;;;;5004092;28;20053;-93
2022/06/04 07:45:22;;;;;;;5.55;3.67;;;14.90;99.90;;;;;;4986814;28;20059;-94
2022/06/04 07:47:48;;;;;;;6.05;3.75;;;14.60;99.90;;;;;;4988880;28;20041;-92
2022/06/04 07:50:14;;;;;;;6.50;3.70;;;15.00;99.90;;;;;;5018861;28;20045;-91
2022/06/04 07:52:40;;;;;;;5.40;3.47;;;14.40;99.90;;;;;;4987632;28;20052;-95
2022/06/04 07:55:07;;;;;;;4.60;3.40;;;14.90;99.90;;;;;;4972283;28;20132;-95
2022/06/04 07:57:34;;;;;;;5.07;3.45;;;15.20;99.90;;;;;;5004565;28;20049;-95
2022/06/04 08:00:01;;;;;;;6.53;3.90;;;15.10;99.90;;;;;;4988381;28;20045;-95
2022/06/04 08:02:27;;;;;;;9.52;4.28;;;15.30;99.90;;;;;;5002813;28;20400;-94
2022/06/04 08:04:54;;;;;;;7.20;3.72;;;15.30;99.90;;;;;;4989025;28;20139;-94
2022/06/04 08:07:24;;;;;;;5.13;3.63;;;15.50;99.90;;;;;;4988418;28;20049;-93
2022/06/04 08:09:50;;;;;;;4.40;2.63;;;15.90;99.90;;;;;;5003573;28;20049;-93
2022/06/04 08:12:17;;;;;;;5.97;3.40;;;15.40;99.90;;;;;;5004957;28;20073;-93
2022/06/04 08:14:44;;;;;;;5.63;3.30;;;15.60;99.90;;;;;;5006130;28;20113;-92
2022/06/04 08:17:10;;;;;;;5.38;3.70;;;15.90;99.90;;;;;;4999857;28;20049;-93
2022/06/04 08:19:37;;;;;;;5.53;3.88;;;15.70;99.90;;;;;;5020850;28;20045;-92
2022/06/04 08:22:05;;;;;;;4.65;3.03;;;15.60;99.90;;;;;;4978068;28;20050;-93
2022/06/04 08:24:31;;;;;;;5.32;3.67;;;16.20;99.90;;;;;;5005281;28;20049;-92
2022/06/04 08:26:59;;;;;;;3.88;3.22;;;16.40;99.90;;;;;;4988846;28;20054;-95
2022/06/04 08:29:30;;;;;;;5.35;3.75;;;16.40;99.90;;;;;;5006198;28;20109;-94
2022/06/04 08:31:57;;;;;;;6.85;3.50;;;16.40;99.90;;;;;;5015255;28;20108;-94
2022/06/04 08:34:26;;;;;;;3.35;3.00;;;16.30;99.90;;;;;;4998457;28;20045;-94
2022/06/04 08:36:55;;;;;;;3.72;3.22;;;16.40;99.90;;;;;;4979160;28;20120;-94
2022/06/04 08:39:21;;;;;;;5.20;3.40;;;16.70;99.90;;;;;;5000839;28;20057;-93
2022/06/04 08:41:49;;;;;;;7.55;3.85;;;15.80;99.90;;;;;;4978510;28;20053;-94
2022/06/04 08:44:21;;;;;;;6.95;3.38;;;16.20;99.90;;;;;;5003140;28;20045;-94
2022/06/04 08:46:49;;;;;;;5.57;3.50;;;15.70;99.90;;;;;;5001283;28;20413;-85
2022/06/04 08:49:30;;;;;;;4.32;3.50;;;16.40;99.90;;;;;;4998812;28;20060;-86
2022/06/04 08:52:02;;;;;;;4.57;3.35;;;16.40;99.90;;;;;;5000891;28;20049;-86
2022/06/04 08:57:36;;;;;;;6.63;3.33;;;17.10;99.90;;;;;;5015494;28;20469;-86
2022/06/04 09:00:24;;;;;;;5.32;3.17;;;16.60;99.90;;;;;;4999852;28;20049;-86
2022/06/04 09:03:12;;;;;;;6.18;3.50;;;16.80;99.90;;;;;;4997696;28;20053;-86
2022/06/04 09:06:00;;;;;;;3.42;3.00;;;17.20;99.90;;;;;;4997436;28;20111;-86
2022/06/04 09:08:49;;;;;;;4.22;3.22;;;17.10;99.90;;;;;;4998141;28;20084;-86
2022/06/04 09:11:44;;;;;;;4.63;3.28;;;17.10;99.90;;;;;;4997533;28;20516;-85
2022/06/04 09:14:24;;;;;;;6.28;3.10;;;16.90;99.90;;;;;;4998447;28;20041;-86
2022/06/04 09:16:58;;;;;;;4.45;3.00;;;16.80;99.90;;;;;;4997390;28;20057;-86
2022/06/04 09:19:30;;;;;;;4.13;3.20;;;17.50;99.90;;;;;;4999501;28;20084;-86
2022/06/04 09:21:58;;;;;;;3.83;2.65;;;17.30;99.90;;;;;;4998373;28;20049;-85
2022/06/04 09:24:25;;;;;;;6.78;3.10;;;18.20;99.90;;;;;;4984213;28;20045;-88
2022/06/04 09:27:05;;;;;;;3.67;2.70;;;18.50;99.90;;;;;;4971457;28;20064;-86
2022/06/04 09:30:01;;;;;;;4.80;2.88;;;17.40;99.90;;;;;;5005666;28;20440;-87
2022/06/04 09:32:51;;;;;;;4.30;2.78;;;17.80;99.90;;;;;;5008281;28;20104;-87
2022/06/04 09:35:21;;;;;;;4.95;2.90;;;18.20;99.90;;;;;;5021637;28;20099;-87
2022/06/04 09:37:49;;;;;;;3.50;2.55;;;17.50;99.90;;;;;;5014556;28;20052;-86
2022/06/04 09:40:17;;;;;;;5.25;2.70;;;17.30;99.90;;;;;;5041280;28;20072;-92
2022/06/04 09:42:44;;;;;;;4.00;3.05;;;17.60;99.90;;;;;;5013144;28;20105;-92
2022/06/04 09:45:36;;;;;;;4.80;2.67;;;16.90;99.90;;;;;;4976843;28;20522;-94
2022/06/04 09:48:22;;;;;;;4.25;2.92;;;17.50;99.90;;;;;;4988998;28;20108;-94
2022/06/04 09:51:00;;;;;;;3.83;2.55;;;17.30;99.90;;;;;;4990020;28;20057;-95
2022/06/04 09:53:35;;;;;;;3.97;2.70;;;17.50;99.90;;;;;;4987581;28;20038;-93
2022/06/04 09:56:16;;;;;;;3.78;2.58;;;18.20;99.90;;;;;;4986414;28;20056;-93
2022/06/04 09:58:49;;;;;;;3.55;2.90;;;18.40;99.90;;;;;;4988650;28;20578;-94
2022/06/04 10:01:24;;;;;;;4.13;2.97;;;18.20;99.90;;;;;;4976061;28;20050;-93
2022/06/04 10:04:04;;;;;;;3.28;2.60;;;19.00;99.90;;;;;;4987879;28;20052;-94
2022/06/04 10:06:36;;;;;;;3.08;2.30;;;18.20;99.90;;;;;;4987942;28;20054;-93
2022/06/04 10:12:15;;;;;;;4.00;2.90;;;17.80;99.90;;;;;;5004179;28;20052;-95
2022/06/04 10:14:42;;;;;;;3.25;2.80;;;18.40;99.90;;;;;;4989569;28;20060;-93
2022/06/04 10:17:32;;;;;;;2.80;2.30;;;18.70;99.90;;;;;;4989056;28;20483;-91
2022/06/04 10:19:58;;;;;;;3.50;2.60;;;18.90;99.90;;;;;;4988251;28;20038;-91
2022/06/04 10:22:24;;;;;;;5.15;2.50;;;19.10;99.90;;;;;;4986576;28;20052;-93
2022/06/04 10:24:55;;;;;;;4.45;2.83;;;19.60;99.90;;;;;;4976584;28;20112;-92
2022/06/04 10:27:52;;;;;;;3.75;2.60;;;19.30;99.90;;;;;;4986841;28;20089;-93
2022/06/04 10:30:29;;;;;;;5.55;2.70;;;18.90;99.90;;;;;;4987988;28;20477;-92
2022/06/04 10:33:17;;;;;;;4.72;2.80;;;19.90;99.90;;;;;;4988058;28;20053;-93
2022/06/04 10:35:56;;;;;;;3.42;2.30;;;19.00;99.90;;;;;;4986284;28;20050;-91
2022/06/04 10:38:43;;;;;;;3.13;2.33;;;19.10;99.90;;;;;;4979958;28;20092;-86
2022/06/04 10:41:39;;;;;;;3.78;2.33;;;18.40;99.90;;;;;;4981189;28;20054;-87
2022/06/04 10:44:23;;;;;;;5.28;2.50;;;18.60;99.90;;;;;;4981271;28;20054;-86
2022/06/04 10:46:55;;;;;;;4.53;3.10;;;18.50;99.90;;;;;;4980811;28;20049;-85
2022/06/04 10:50:03;;;;;;;3.33;2.58;;;19.20;99.90;;;;;;4986567;28;20065;-87
2022/06/04 10:52:44;;;;;;;2.88;2.50;;;19.50;99.90;;;;;;4953137;29;20087;-85
2022/06/04 10:55:16;;;;;;;3.15;2.53;;;19.10;99.90;;;;;;5012830;28;20052;-87
2022/06/04 10:57:51;;;;;;;3.00;2.50;;;19.50;99.90;;;;;;4998857;28;20037;-85
2022/06/04 11:00:25;;;;;;;5.10;2.35;;;20.00;99.90;;;;;;4998725;28;20053;-86
2022/06/04 11:03:00;;;;;;;3.53;2.50;;;19.90;99.90;;;;;;4998660;28;20049;-85
2022/06/04 11:05:31;;;;;;;4.93;2.90;;;18.20;99.90;;;;;;4998283;28;20104;-87
2022/06/04 11:08:23;;;;;;;4.85;2.75;;;18.40;99.90;;;;;;4997334;28;20045;-85
2022/06/04 11:11:00;;;;;;;4.63;2.83;;;19.40;99.90;;;;;;4996949;28;20049;-86
2022/06/04 11:13:28;;;;;;;4.25;2.70;;;19.40;99.90;;;;;;4997760;28;20041;-87
2022/06/04 11:15:54;;;;;;;3.00;2.70;;;20.10;99.90;;;;;;4997599;28;20041;-86
2022/06/04 11:18:34;;;;;;;5.03;3.05;;;18.80;99.90;;;;;;4997847;28;20112;-87
2022/06/04 11:21:20;;;;;;;3.25;2.60;;;19.70;99.90;;;;;;4998950;28;20060;-88
2022/06/04 11:23:55;;;;;;;4.10;3.17;;;18.50;99.90;;;;;;5002337;28;20075;-86
2022/06/04 11:26:44;;;;;;;4.93;3.20;;;20.00;99.90;;;;;;5002807;28;20897;-87
2022/06/04 11:29:14;;;;;;;6.10;2.80;;;19.50;99.90;;;;;;5002888;28;20076;-88
2022/06/04 11:31:43;;;;;;;3.35;2.72;;;19.70;99.90;;;;;;4985214;28;20057;-87
2022/06/04 11:34:33;;;;;;;4.95;2.83;;;19.40;99.90;;;;;;5001399;28;20041;-86
2022/06/04 11:37:17;;;;;;;3.45;2.80;;;18.90;99.90;;;;;;5000012;28;20512;-85
2022/06/04 11:40:05;;;;;;;5.25;3.42;;;19.70;99.90;;;;;;5003160;28;20137;-87
2022/06/04 11:42:41;;;;;;;3.97;2.83;;;20.10;99.90;;;;;;5006966;28;20110;-85
2022/06/04 11:45:22;;;;;;;5.38;2.88;;;19.90;99.90;;;;;;4999654;28;20057;-86
2022/06/04 11:48:07;;;;;;;3.40;2.72;;;20.60;99.90;;;;;;4999095;28;20115;-87
2022/06/04 11:50:52;;;;;;;3.65;2.80;;;20.30;99.90;;;;;;4981314;28;20053;-86
2022/06/04 11:53:38;;;;;;;2.72;2.38;;;20.10;99.90;;;;;;4978182;28;20045;-95
2022/06/04 11:56:21;;;;;;;4.38;2.85;;;19.50;99.90;;;;;;4983053;28;20046;-93
2022/06/04 11:59:06;;;;;;;4.13;2.78;;;19.60;99.90;;;;;;4986356;28;20050;-88
2022/06/04 12:01:43;;;;;;;;;;;19.20;99.90;;;;;;4983115;28;20050;-90
2022/06/04 12:04:34;;;;;;;5.38;2.95;;;18.40;99.90;;;;;;4995852;28;19917;-86
2022/06/04 12:07:19;;;;;;;3.88;2.60;;;18.90;99.90;;;;;;4980960;28;20056;-87
2022/06/04 12:10:05;;;;;;;5.97;2.67;;;18.50;99.90;;;;;;4982699;28;20042;-87
2022/06/04 12:12:44;;;;;;;6.07;3.35;;;19.40;99.90;;;;;;4993600;28;20048;-86
2022/06/04 12:15:19;;;;;;;5.25;3.03;;;19.70;99.90;;;;;;5011129;28;20053;-87
2022/06/04 12:17:54;;;;;;;4.00;3.00;;;20.00;99.90;;;;;;5009839;28;20045;-87
2022/06/04 12:26:22;;;;;;;6.65;3.22;;;19.70;99.90;;;;;;5041881;28;20131;-87
2022/06/04 12:28:49;;;;;;;3.95;2.83;;;19.80;99.90;;;;;;5024842;28;20052;-89
2022/06/04 12:31:27;;;;;;;5.75;3.30;;;19.50;99.90;;;;;;5004888;28;20064;-86
2022/06/04 12:33:54;;;;;;;4.80;3.30;;;19.40;99.90;;;;;;5023913;28;20048;-86
2022/06/04 12:36:36;;;;;;;3.75;3.00;;;19.30;99.90;;;;;;5004506;28;20048;-86
2022/06/04 12:39:21;;;;;;;4.53;2.90;;;19.90;99.90;;;;;;5005282;28;20134;-87
2022/06/04 12:42:02;;;;;;;5.22;3.13;;;19.70;99.90;;;;;;5020616;28;20056;-87
2022/06/04 12:44:36;;;;;;;7.18;2.90;;;19.80;99.90;;;;;;5018153;28;20154;-88
2022/06/04 12:47:19;;;;;;;7.22;3.25;;;20.00;99.90;;;;;;5002671;28;20503;-87
2022/06/04 12:49:56;;;;;;;6.30;3.10;;;19.20;99.90;;;;;;5028307;28;20519;-87
2022/06/04 12:52:51;;;;;;;4.93;2.90;;;18.90;99.90;;;;;;5038247;28;20144;-87
2022/06/04 12:55:19;;;;;;;;;;;18.30;99.90;;;;;;5039388;28;20123;-86
2022/06/04 12:57:54;;;;;;;4.68;2.97;;;19.00;99.90;;;;;;5054375;28;19916;-88
2022/06/04 13:00:29;;;;;;;5.55;2.90;;;19.10;99.90;;;;;;5045232;28;20211;-93
2022/06/04 13:02:59;;;;;;;2.72;2.42;;;19.30;99.90;;;;;;5053853;28;20108;-95
2022/06/04 13:05:26;;;;;;;6.38;3.58;;;18.80;99.90;;;;;;5050052;28;20041;-95
2022/06/04 13:08:18;;;;;;;4.45;2.88;;;18.40;99.90;;;;;;5055098;28;20047;-94
2022/06/04 13:11:23;;;;;;;6.32;3.25;;;18.50;99.90;;;;;;5055608;28;20052;-94
2022/06/04 13:14:30;;;;;;;6.57;3.10;;;18.50;99.90;;;;;;5055221;28;20202;-94
2022/06/04 13:17:11;;;;;;;5.72;2.92;;;18.80;99.90;;;;;;5026532;28;20040;-93
2022/06/04 13:19:55;;;;;;;4.88;3.30;;;19.20;99.90;;;;;;5055650;28;20059;-91
2022/06/04 13:22:29;;;;;;;6.63;3.00;;;19.30;99.90;;;;;;5052630;28;20048;-93
2022/06/04 13:24:57;;;;;;;4.85;3.10;;;18.40;99.90;;;;;;5052015;28;20078;-94
2022/06/04 13:27:42;;;;;;;5.63;3.05;;;18.50;99.90;;;;;;5053278;28;20123;-93
2022/06/04 13:30:27;;;;;;;7.85;3.25;;;19.10;99.90;;;;;;5054598;28;20424;-93
2022/06/04 13:33:12;;;;;;;4.88;3.00;;;19.30;99.90;;;;;;5056533;28;20051;-93
2022/06/04 13:35:51;;;;;;;5.95;2.90;;;18.90;99.90;;;;;;5053835;28;20048;-94
2022/06/04 13:38:22;;;;;;;6.45;3.40;;;19.40;99.90;;;;;;5055350;28;20051;-92